createdAt,value
2023-05-24T00:00:13.231Z,71.33
2023-05-24T00:02:43.145Z,71.24
2023-05-24T00:05:11.055Z,71.04
2023-05-24T00:07:38.359Z,70.91
2023-05-24T00:10:09.206Z,71.02
2023-05-24T00:12:36.065Z,71.03
2023-05-24T00:15:02.785Z,70.88
2023-05-24T00:17:30.409Z,70.76
2023-05-24T00:19:57.053Z,70.68
2023-05-24T00:22:23.692Z,70.31
2023-05-24T00:25:02.549Z,70.87
2023-05-24T00:27:29.074Z,71.37
2023-05-24T00:29:55.752Z,70.23
2023-05-24T00:32:22.494Z,70.05
2023-05-24T00:34:49.124Z,69.88
2023-05-24T00:37:15.824Z,70.81
2023-05-24T00:39:42.370Z,71.11
2023-05-24T00:42:09.014Z,71.63
2023-05-24T00:44:35.845Z,71.32
2023-05-24T00:47:08.853Z,71.50
2023-05-24T00:49:35.582Z,72.05
2023-05-24T00:52:02.422Z,71.93
2023-05-24T00:54:29.688Z,71.39
2023-05-24T00:59:43.631Z,71.29
2023-05-24T01:02:10.519Z,71.32
2023-05-24T01:04:38.290Z,71.96
2023-05-24T01:07:19.030Z,72.01
2023-05-24T01:10:14.577Z,71.84
2023-05-24T01:12:59.801Z,71.37
2023-05-24T01:15:47.633Z,72.00
2023-05-24T01:18:22.146Z,72.08
2023-05-24T01:21:11.157Z,72.09
2023-05-24T01:23:49.706Z,73.40
2023-05-24T01:26:40.208Z,72.81
2023-05-24T01:38:41.796Z,73.43
2023-05-24T01:41:17.718Z,74.31
2023-05-24T01:46:38.829Z,74.09
2023-05-24T01:49:27.252Z,74.57
2023-05-24T01:52:07.952Z,74.73
2023-05-24T01:54:39.872Z,74.78
2023-05-24T01:57:09.253Z,74.58
2023-05-24T02:07:03.637Z,74.32
2023-05-24T02:09:30.181Z,75.11
2023-05-24T02:11:56.735Z,74.46
2023-05-24T02:14:24.496Z,75.23
2023-05-24T02:16:51.379Z,74.10
2023-05-24T02:19:21.491Z,74.59
2023-05-24T02:21:48.184Z,75.47
2023-05-24T02:24:15.096Z,74.67
2023-05-24T02:26:41.765Z,75.16
2023-05-24T02:29:08.309Z,75.27
2023-05-24T02:31:34.885Z,75.82
2023-05-24T02:34:01.690Z,75.25
2023-05-24T02:36:28.437Z,74.92
2023-05-24T02:38:55.114Z,75.28
2023-05-24T02:41:22.262Z,74.94
2023-05-24T02:43:48.814Z,75.58
2023-05-24T02:46:18.089Z,76.12
2023-05-24T02:48:44.638Z,76.57
2023-05-24T02:51:23.537Z,76.50
2023-05-24T02:53:53.053Z,76.97
2023-05-24T02:56:20.312Z,76.96
2023-05-24T02:58:46.811Z,75.85
2023-05-24T03:01:13.608Z,75.67
2023-05-24T03:03:46.613Z,76.06
2023-05-24T03:06:16.760Z,76.02
2023-05-24T03:08:43.528Z,77.13
2023-05-24T03:11:10.028Z,76.01
2023-05-24T03:13:36.614Z,77.16
2023-05-24T03:16:03.315Z,76.33
2023-05-24T03:18:30.155Z,76.07
2023-05-24T03:20:56.867Z,76.34
2023-05-24T03:23:23.456Z,76.86
2023-05-24T03:25:50.120Z,76.85
2023-05-24T03:28:16.627Z,76.52
2023-05-24T03:30:43.657Z,76.36
2023-05-24T03:33:10.636Z,76.55
2023-05-24T03:35:37.134Z,76.54
2023-05-24T03:38:03.812Z,76.76
2023-05-24T03:40:32.594Z,77.20
2023-05-24T03:43:04.355Z,76.97
2023-05-24T03:45:38.987Z,76.30
2023-05-24T03:48:22.614Z,75.62
2023-05-24T03:50:49.295Z,74.98
2023-05-24T03:53:16.112Z,75.40
2023-05-24T03:55:42.656Z,76.61
2023-05-24T03:58:09.178Z,77.24
2023-05-24T04:00:36.021Z,77.27
2023-05-24T04:03:09.119Z,77.80
2023-05-24T04:05:35.802Z,77.60
2023-05-24T04:08:02.953Z,77.29
2023-05-24T04:10:34.611Z,77.96
2023-05-24T04:13:04.240Z,78.35
2023-05-24T04:15:31.895Z,78.52
2023-05-24T04:17:58.765Z,78.60
2023-05-24T04:20:27.065Z,78.90
2023-05-24T04:23:06.092Z,78.91
2023-05-24T04:25:33.709Z,79.05
2023-05-24T04:28:00.495Z,79.25
2023-05-24T04:30:30.259Z,79.21
2023-05-24T04:33:07.348Z,79.80
2023-05-24T04:35:33.867Z,79.81
2023-05-24T04:38:00.446Z,80.13
2023-05-24T04:40:27.240Z,79.37
2023-05-24T04:45:34.477Z,79.29
2023-05-24T04:48:01.303Z,78.30
2023-05-24T04:50:29.055Z,79.04
2023-05-24T04:52:55.542Z,79.63
2023-05-24T04:55:22.226Z,80.10
2023-05-24T04:57:48.720Z,80.30
2023-05-24T05:00:15.526Z,80.00
2023-05-24T05:02:42.258Z,79.52
2023-05-24T05:05:08.967Z,79.65
2023-05-24T05:07:35.477Z,79.55
2023-05-24T05:10:02.044Z,79.20
2023-05-24T05:12:28.568Z,79.84
2023-05-24T05:14:55.243Z,80.89
2023-05-24T05:17:25.188Z,79.57
2023-05-24T05:19:53.637Z,79.51
2023-05-24T05:22:20.143Z,79.41
2023-05-24T05:24:46.668Z,80.03
2023-05-24T05:27:13.178Z,79.31
2023-05-24T05:29:39.720Z,78.86
2023-05-24T05:32:06.670Z,79.26
2023-05-24T05:34:33.225Z,78.90
2023-05-24T05:37:11.429Z,79.09
2023-05-24T05:39:39.178Z,78.91
2023-05-24T05:42:06.271Z,78.68
2023-05-24T05:44:41.825Z,78.04
2023-05-24T05:47:09.454Z,77.43
2023-05-24T05:49:36.638Z,77.68
2023-05-24T05:52:04.658Z,77.39
2023-05-24T05:54:36.788Z,77.54
2023-05-24T05:57:13.040Z,77.02
2023-05-24T05:59:45.844Z,76.94
2023-05-24T06:02:24.718Z,76.37
2023-05-24T06:04:51.378Z,76.26
2023-05-24T06:07:18.618Z,76.98
2023-05-24T06:09:45.221Z,75.85
2023-05-24T06:12:11.876Z,76.24
2023-05-24T06:14:40.960Z,75.17
2023-05-24T06:17:07.799Z,75.05
2023-05-24T06:19:46.957Z,75.15
2023-05-24T06:22:16.718Z,74.43
2023-05-24T06:24:43.984Z,73.80
2023-05-24T06:27:15.200Z,73.71
2023-05-24T06:29:54.373Z,73.48
2023-05-24T06:36:05.772Z,72.86
2023-05-24T06:38:32.963Z,72.54
2023-05-24T06:40:59.968Z,72.10
2023-05-24T06:43:26.750Z,72.30
2023-05-24T06:45:54.952Z,72.48
2023-05-24T06:48:24.085Z,72.65
2023-05-24T06:51:01.111Z,71.44
2023-05-24T06:53:27.840Z,71.27
2023-05-24T06:55:57.526Z,71.30
2023-05-24T06:58:24.257Z,71.80
2023-05-24T07:00:51.079Z,71.32
2023-05-24T07:03:17.707Z,71.46
2023-05-24T07:05:44.354Z,70.72
2023-05-24T07:08:33.386Z,70.45
2023-05-24T07:10:58.149Z,69.75
2023-05-24T07:13:24.803Z,70.81
2023-05-24T07:15:51.238Z,69.95
2023-05-24T07:18:17.665Z,69.54
2023-05-24T07:20:44.416Z,69.71
2023-05-24T07:23:12.220Z,68.88
2023-05-24T07:25:38.859Z,68.80
2023-05-24T07:30:48.363Z,69.34
2023-05-24T07:37:33.439Z,69.06
2023-05-24T07:40:00.485Z,68.88
2023-05-24T07:42:26.902Z,69.15
2023-05-24T07:45:07.155Z,68.53
2023-05-24T07:47:33.962Z,67.57
2023-05-24T07:50:00.754Z,67.42
2023-05-24T08:00:14.620Z,65.88
2023-05-24T08:02:43.310Z,65.08
2023-05-24T08:05:13.897Z,64.75
2023-05-24T08:07:42.219Z,63.98
2023-05-24T08:10:14.701Z,64.96
2023-05-24T08:12:42.344Z,64.63
2023-05-24T08:15:31.591Z,65.35
2023-05-24T08:17:58.455Z,65.13
2023-05-24T08:20:25.437Z,65.12
2023-05-24T08:22:52.443Z,64.58
2023-05-24T08:32:58.208Z,61.42
2023-05-24T08:35:34.290Z,61.45
2023-05-24T08:38:03.207Z,61.38
2023-05-24T08:40:32.310Z,61.37
2023-05-24T08:43:14.426Z,60.61
2023-05-24T08:49:07.761Z,58.83
2023-05-24T08:51:34.832Z,58.78
2023-05-24T08:54:05.791Z,58.17
2023-05-24T08:56:43.999Z,59.02
2023-05-24T08:59:11.308Z,60.11
2023-05-24T09:01:41.109Z,60.00
2023-05-24T09:04:22.596Z,59.64
2023-05-24T09:06:56.133Z,56.33
2023-05-24T09:09:39.845Z,58.34
2023-05-24T09:12:08.614Z,57.50
2023-05-24T09:14:35.196Z,58.93
2023-05-24T09:17:02.519Z,57.05
2023-05-24T09:19:31.236Z,56.68
2023-05-24T09:21:58.415Z,56.63
2023-05-24T09:24:25.035Z,56.00
2023-05-24T09:26:51.769Z,57.57
2023-05-24T09:29:23.458Z,57.70
2023-05-24T09:32:04.648Z,56.36
2023-05-24T09:34:40.266Z,55.25
2023-05-24T09:37:09.712Z,54.67
2023-05-24T09:39:51.440Z,56.16
2023-05-24T09:42:24.134Z,57.62
2023-05-24T09:45:11.333Z,57.90
2023-05-24T09:47:38.673Z,58.55
2023-05-24T09:50:11.666Z,57.80
2023-05-24T09:52:38.757Z,57.38
2023-05-24T09:55:20.972Z,57.73
2023-05-24T09:58:14.114Z,57.76
2023-05-24T10:01:07.179Z,58.08
2023-05-24T10:04:03.750Z,57.22
2023-05-24T10:09:18.344Z,54.92
2023-05-24T10:11:45.841Z,56.19
2023-05-24T10:14:12.957Z,56.64
2023-05-24T10:17:02.696Z,56.77
2023-05-24T10:19:29.472Z,56.92
2023-05-24T10:21:58.195Z,56.17
2023-05-24T10:24:33.844Z,56.72
2023-05-24T10:27:04.049Z,56.01
2023-05-24T10:30:21.823Z,55.78
2023-05-24T10:32:50.029Z,54.48
2023-05-24T10:35:18.371Z,55.86
2023-05-24T10:37:47.331Z,55.14
2023-05-24T10:40:21.706Z,54.00
2023-05-24T10:46:35.344Z,55.31
2023-05-24T10:57:04.816Z,53.75
2023-05-24T10:59:37.532Z,53.53
2023-05-24T11:02:15.295Z,54.25
2023-05-24T11:04:46.419Z,52.70
2023-05-24T11:07:17.767Z,52.84
2023-05-24T11:09:47.796Z,53.88
2023-05-24T11:12:18.805Z,53.84
2023-05-24T11:14:51.360Z,53.48
2023-05-24T11:17:24.562Z,52.74
2023-05-24T11:20:05.325Z,53.18
2023-05-24T11:22:32.195Z,53.08
2023-05-24T11:25:03.899Z,52.94
2023-05-24T11:27:30.647Z,52.97
2023-05-24T11:29:58.355Z,53.08
2023-05-24T11:32:38.286Z,52.99
2023-05-24T11:40:33.039Z,53.61
2023-05-24T11:43:20.070Z,54.25
2023-05-24T11:45:53.738Z,53.30
2023-05-24T11:48:21.728Z,54.54
2023-05-24T11:50:50.223Z,52.99
2023-05-24T11:53:33.567Z,53.94
2023-05-24T11:56:00.187Z,53.87
2023-05-24T11:58:38.481Z,53.36
2023-05-24T12:01:23.852Z,53.98
2023-05-24T12:04:05.882Z,53.36
2023-05-24T12:06:37.917Z,53.01
2023-05-24T12:09:11.023Z,54.02
2023-05-24T12:11:48.469Z,53.71
2023-05-24T12:14:19.579Z,53.44
2023-05-24T12:16:47.358Z,52.31
2023-05-24T12:19:31.561Z,53.07
2023-05-24T12:22:01.078Z,52.99
2023-05-24T12:24:28.382Z,52.65
2023-05-24T12:27:05.827Z,53.13
2023-05-24T12:29:37.701Z,53.17
2023-05-24T12:32:04.857Z,52.86
2023-05-24T12:34:32.189Z,52.61
2023-05-24T12:37:02.730Z,52.42
2023-05-24T12:39:35.498Z,52.81
2023-05-24T12:42:18.153Z,53.35
2023-05-24T12:44:45.378Z,52.13
2023-05-24T12:47:21.893Z,52.97
2023-05-24T12:49:49.331Z,52.99
2023-05-24T12:52:15.831Z,53.44
2023-05-24T12:54:42.512Z,52.91
2023-05-24T12:57:09.198Z,52.26
2023-05-24T12:59:47.655Z,52.58
2023-05-24T13:02:14.518Z,51.81
2023-05-24T13:04:41.298Z,50.30
2023-05-24T13:09:50.615Z,50.59
2023-05-24T13:12:17.175Z,51.84
2023-05-24T13:14:56.089Z,51.17
2023-05-24T13:17:23.210Z,51.09
2023-05-24T13:19:49.880Z,51.47
2023-05-24T13:27:37.862Z,52.41
2023-05-24T13:30:05.855Z,53.10
2023-05-24T13:35:15.006Z,51.82
2023-05-24T13:37:47.634Z,52.54
2023-05-24T13:40:14.502Z,51.68
2023-05-24T13:42:41.057Z,51.30
2023-05-24T13:45:08.254Z,51.92
2023-05-24T13:47:40.336Z,51.62
2023-05-24T13:50:07.733Z,51.87
2023-05-24T13:52:35.018Z,53.16
2023-05-24T13:55:04.439Z,51.27
2023-05-24T13:57:51.296Z,52.33
2023-05-24T14:00:28.196Z,52.11
2023-05-24T14:02:58.072Z,51.47
2023-05-24T14:05:42.006Z,51.81
2023-05-24T14:08:08.631Z,52.32
2023-05-24T14:10:37.053Z,51.77
2023-05-24T14:15:38.004Z,50.51
2023-05-24T14:18:08.229Z,50.03
2023-05-24T14:20:40.396Z,50.02
2023-05-24T14:23:08.423Z,49.65
2023-05-24T14:25:35.081Z,50.68
2023-05-24T14:28:03.514Z,51.32
2023-05-24T14:30:32.227Z,51.21
2023-05-24T14:32:59.228Z,52.18
2023-05-24T14:35:26.426Z,51.29
2023-05-24T14:37:53.794Z,51.10
2023-05-24T14:40:23.219Z,51.35
2023-05-24T14:42:49.835Z,51.59
2023-05-24T14:54:52.099Z,53.42
2023-05-24T14:57:21.951Z,52.85
2023-05-24T14:59:48.881Z,52.93
2023-05-24T15:02:15.661Z,51.79
2023-05-24T15:04:42.233Z,50.37
2023-05-24T15:07:10.948Z,49.79
2023-05-24T15:09:37.535Z,50.84
2023-05-24T15:12:05.184Z,50.43
2023-05-24T15:14:31.846Z,49.89
2023-05-24T15:17:08.635Z,49.72
2023-05-24T15:19:35.350Z,49.90
2023-05-24T15:22:01.929Z,48.48
2023-05-24T15:24:28.377Z,49.05
2023-05-24T15:27:03.369Z,48.14
2023-05-24T15:29:30.095Z,48.66
2023-05-24T15:31:58.667Z,48.72
2023-05-24T15:34:51.041Z,48.66
2023-05-24T15:37:19.650Z,48.59
2023-05-24T15:40:02.623Z,48.24
2023-05-24T15:42:30.646Z,48.89
2023-05-24T15:44:57.482Z,49.28
2023-05-24T15:48:04.407Z,49.78
2023-05-24T15:50:49.351Z,50.40
2023-05-24T15:53:21.566Z,50.83
2023-05-24T15:55:48.563Z,50.73
2023-05-24T15:58:30.922Z,50.18
2023-05-24T16:00:57.595Z,49.98
2023-05-24T16:03:24.291Z,49.73
2023-05-24T16:05:52.958Z,49.75
2023-05-24T16:08:19.927Z,50.02
2023-05-24T16:10:46.726Z,50.72
2023-05-24T16:13:13.435Z,51.11
2023-05-24T16:15:44.864Z,51.82
2023-05-24T16:18:12.905Z,51.96
2023-05-24T16:24:54.591Z,52.55
2023-05-24T16:31:04.204Z,53.89
2023-05-24T16:33:31.003Z,54.74
2023-05-24T16:35:58.695Z,54.88
2023-05-24T16:38:26.565Z,54.96
2023-05-24T16:40:54.145Z,55.63
2023-05-24T16:43:22.878Z,56.05
2023-05-24T16:46:12.505Z,55.70
2023-05-24T17:16:55.238Z,55.74
2023-05-24T17:19:27.549Z,56.15
2023-05-24T17:22:07.199Z,55.79
2023-05-24T17:24:59.561Z,55.72
2023-05-24T17:27:29.380Z,55.32
2023-05-24T17:29:56.377Z,56.08
2023-05-24T17:32:46.010Z,56.74
2023-05-24T17:35:17.206Z,58.05
2023-05-24T17:38:35.987Z,58.43
2023-05-24T17:40:49.291Z,58.74
2023-05-24T17:43:16.336Z,58.41
2023-05-24T17:45:48.848Z,58.79
2023-05-24T17:48:19.162Z,59.33
2023-05-24T17:50:46.206Z,58.79
2023-05-24T17:54:01.524Z,58.92
2023-05-24T17:56:47.319Z,59.06
2023-05-24T17:59:17.117Z,59.71
2023-05-24T18:01:59.027Z,59.57
2023-05-24T18:04:38.369Z,59.69
2023-05-24T18:07:15.230Z,59.28
2023-05-24T18:10:08.154Z,59.79
2023-05-24T18:12:37.780Z,60.23
2023-05-24T18:16:27.273Z,59.72
2023-05-24T18:18:54.582Z,59.73
2023-05-24T18:21:24.972Z,60.31
2023-05-24T18:27:04.259Z,60.85
2023-05-24T18:30:17.438Z,61.11
2023-05-24T18:35:37.918Z,61.81
2023-05-24T18:38:16.425Z,61.91
2023-05-24T18:43:44.282Z,62.14
2023-05-24T18:46:16.815Z,62.26
2023-05-24T18:48:46.588Z,62.12
2023-05-24T18:51:17.745Z,62.44
2023-05-24T18:55:19.685Z,62.47
2023-05-24T18:59:29.455Z,62.18
2023-05-24T19:04:39.143Z,62.17
2023-05-24T19:07:18.284Z,63.22
2023-05-24T19:10:38.903Z,63.23
2023-05-24T19:13:08.635Z,63.47
2023-05-24T19:23:27.251Z,64.07
2023-05-24T19:26:06.238Z,64.17
2023-05-24T19:28:50.638Z,64.22
2023-05-24T19:31:18.998Z,64.10
2023-05-24T19:34:00.100Z,64.96
2023-05-24T19:36:40.741Z,64.88
2023-05-24T19:39:15.761Z,64.36
2023-05-24T19:44:30.260Z,64.24
2023-05-24T19:46:57.061Z,64.96
2023-05-24T19:49:23.894Z,65.25
2023-05-24T19:51:52.042Z,65.59
2023-05-24T19:54:18.769Z,65.42
2023-05-24T19:56:49.834Z,65.69
2023-05-24T19:59:17.189Z,65.81
2023-05-24T20:01:46.869Z,66.25
2023-05-24T20:04:16.443Z,66.48
2023-05-24T20:06:45.405Z,66.56
2023-05-24T20:09:24.656Z,67.12
2023-05-24T20:11:51.509Z,66.97
2023-05-24T20:14:24.263Z,66.91
2023-05-24T20:17:15.691Z,66.94
2023-05-24T20:20:20.081Z,67.49
2023-05-24T20:32:50.988Z,68.24
2023-05-24T20:35:35.920Z,68.49
2023-05-24T20:38:24.690Z,68.46
2023-05-24T20:41:43.005Z,68.27
2023-05-24T20:44:24.241Z,68.73
2023-05-24T20:46:51.138Z,69.37
2023-05-24T20:49:17.846Z,69.46
2023-05-24T20:51:53.634Z,69.31
2023-05-24T20:54:20.450Z,69.71
2023-05-24T21:02:03.787Z,69.87
2023-05-24T21:04:30.648Z,69.96
2023-05-24T21:07:11.536Z,70.62
2023-05-24T21:09:38.011Z,70.31
2023-05-24T21:12:07.160Z,70.44
2023-05-24T21:14:46.315Z,70.25
2023-05-24T21:17:43.263Z,71.08
2023-05-24T21:20:00.285Z,70.29
2023-05-24T21:22:43.861Z,70.75
2023-05-24T21:25:28.994Z,70.83
2023-05-24T21:31:42.621Z,71.50
2023-05-24T21:34:09.124Z,72.03
2023-05-24T21:36:49.363Z,71.83
2023-05-24T21:39:16.205Z,71.58
2023-05-24T21:42:02.314Z,72.03
2023-05-24T21:44:29.105Z,72.71
2023-05-24T21:46:56.197Z,72.65
2023-05-24T21:49:38.390Z,72.14
2023-05-24T21:52:05.361Z,72.67
2023-05-24T21:54:50.360Z,72.61
2023-05-24T21:57:16.952Z,73.04
2023-05-24T21:59:56.296Z,72.85
2023-05-24T22:02:45.443Z,73.61
2023-05-24T22:05:10.000Z,73.84
2023-05-24T22:07:51.806Z,73.82
2023-05-24T22:10:18.590Z,73.74
2023-05-24T22:12:46.282Z,73.94
2023-05-24T22:15:18.790Z,73.93
2023-05-24T22:17:51.435Z,73.63
2023-05-24T22:20:19.385Z,73.99
2023-05-24T22:23:01.432Z,73.87
2023-05-24T22:25:28.251Z,74.29
2023-05-24T22:28:13.757Z,74.52
2023-05-24T22:30:59.080Z,74.14
2023-05-24T22:33:25.703Z,74.11
2023-05-24T22:35:52.215Z,74.36
2023-05-24T22:38:36.084Z,74.29
2023-05-24T22:41:02.770Z,74.20
2023-05-24T22:43:29.477Z,74.24
2023-05-24T22:46:16.510Z,74.46
2023-05-24T22:48:43.152Z,74.69
2023-05-24T22:51:17.244Z,74.48
2023-05-24T22:53:43.900Z,74.41
2023-05-24T22:56:10.832Z,74.51
2023-05-24T22:58:49.834Z,74.45
2023-05-24T23:01:19.548Z,75.10
2023-05-24T23:04:20.411Z,74.58
2023-05-24T23:06:48.960Z,74.78
2023-05-24T23:09:17.627Z,75.10
2023-05-24T23:12:01.998Z,74.81
2023-05-24T23:14:46.613Z,74.63
2023-05-24T23:17:14.124Z,75.01
2023-05-24T23:19:59.587Z,75.19
2023-05-24T23:22:26.488Z,75.59
2023-05-24T23:25:55.689Z,75.23
2023-05-24T23:27:41.367Z,75.42
2023-05-24T23:30:08.465Z,74.73
2023-05-24T23:33:21.567Z,74.78
2023-05-24T23:35:57.546Z,75.61
2023-05-24T23:38:24.362Z,76.05
2023-05-24T23:47:26.914Z,76.37
2023-05-24T23:50:22.372Z,75.98
2023-05-24T23:53:09.364Z,76.18
2023-05-24T23:55:35.931Z,76.80
2023-05-24T23:58:02.648Z,76.23
